Time;durP1;ratioP1;P1;durP2;ratioP2;P2;SDS_P1;SDS_P2;PMS_P1;PMS_P2;Temp;Humidity;BMP_temperature;BMP_pressure;BME280_temperature;BME280_humidity;BME280_pressure;Samples;Min_cycle;Max_cycle;Signal;HPM_P1;HPM_P2
2023/10/07 00:00:49;;;;;;;5.40;5.00;;;;;;;12.48;100.00;101474.38;6033914;23;20033;-78
2023/10/07 00:03:18;;;;;;;5.38;4.97;;;;;;;12.94;100.00;101566.97;6058250;23;20018;-74
2023/10/07 00:05:47;;;;;;;5.80;5.25;;;;;;;12.40;100.00;101471.25;6001607;23;20576;-76
2023/10/07 00:08:19;;;;;;;5.50;5.20;;;;;;;12.47;100.00;101493.72;6060616;23;20461;-77
2023/10/07 00:10:49;;;;;;;5.23;4.90;;;;;;;13.04;100.00;101599.84;6040121;23;20027;-75
2023/10/07 00:13:20;;;;;;;8.75;5.43;;;;;;;13.05;100.00;101598.06;6057987;23;20670;-75
2023/10/07 00:15:50;;;;;;;5.47;5.07;;;;;;;12.99;100.00;101591.34;6036668;23;20041;-76
2023/10/07 00:18:23;;;;;;;5.50;5.00;;;;;;;12.90;100.00;101600.50;6033006;23;20622;-76
2023/10/07 00:20:53;;;;;;;5.18;4.88;;;;;;;12.61;100.00;101564.16;6060564;23;20034;-77
2023/10/07 00:23:26;;;;;;;5.07;4.72;;;;;;;12.12;100.00;101501.47;6044954;23;20022;-75
2023/10/07 00:25:54;;;;;;;5.65;5.25;;;;;;;12.62;100.00;101595.69;6058478;23;20027;-75
2023/10/07 00:28:32;;;;;;;5.28;4.75;;;;;;;12.41;100.00;101578.25;6037367;23;20006;-73
2023/10/07 00:31:03;;;;;;;5.15;4.75;;;;;;;12.79;100.00;101655.50;6056285;23;20347;-74
2023/10/07 00:33:37;;;;;;;5.35;5.03;;;;;;;12.75;100.00;101648.66;6060711;23;20513;-75
2023/10/07 00:36:10;;;;;;;5.70;5.30;;;;;;;12.32;100.00;101584.78;6026855;23;20590;-75
2023/10/07 00:38:41;;;;;;;7.43;5.18;;;;;;;12.49;100.00;101616.47;6064026;23;20406;-76
2023/10/07 00:41:11;;;;;;;4.93;4.63;;;;;;;12.34;100.00;101598.72;6030336;23;20042;-74
2023/10/07 00:43:37;;;;;;;5.47;5.07;;;;;;;12.60;100.00;101663.38;6058494;23;20032;-74
2023/10/07 00:46:10;;;;;;;5.95;4.95;;;;;;;12.18;100.00;101601.19;6003103;23;20180;-73
2023/10/07 00:48:45;;;;;;;5.43;5.03;;;;;;;12.17;100.00;101605.63;6060747;23;20507;-75
2023/10/07 00:51:13;;;;;;;7.25;5.15;;;;;;;12.24;100.00;101624.59;6059819;23;20358;-74
2023/10/07 00:53:46;;;;;;;5.50;5.20;;;;;;;12.67;100.00;101687.63;6055304;23;20018;-75
2023/10/07 00:56:16;;;;;;;6.38;5.85;;;;;;;12.48;100.00;101662.13;6058646;23;20082;-75
2023/10/07 00:58:46;;;;;;;5.32;5.03;;;;;;;12.23;100.00;101620.28;6007179;23;20101;-75
2023/10/07 01:01:14;;;;;;;5.20;4.80;;;;;;;12.25;100.00;101650.03;6057390;23;20030;-75
2023/10/07 01:03:55;;;;;;;5.50;5.10;;;;;;;12.63;100.00;101684.31;6030030;23;20077;-76
2023/10/07 01:06:25;;;;;;;5.47;5.18;;;;;;;12.00;100.00;101579.19;6035685;23;20125;-75
2023/10/07 01:08:58;;;;;;;6.63;4.95;;;;;;;12.69;100.00;101691.06;6027369;23;20516;-74
2023/10/07 01:11:29;;;;;;;5.15;4.75;;;;;;;12.08;100.00;101597.25;6062667;23;20022;-75
2023/10/07 01:13:56;;;;;;;6.50;4.90;;;;;;;12.52;100.00;101687.41;6032481;23;20093;-75
2023/10/07 01:19:04;;;;;;;5.43;5.10;;;;;;;12.58;100.00;101695.03;6033455;23;20027;-75
2023/10/07 01:21:32;;;;;;;6.78;5.43;;;;;;;12.30;100.00;101661.19;6057544;23;20030;-75
2023/10/07 01:23:58;;;;;;;5.50;5.20;;;;;;;11.75;100.00;101563.59;6018649;23;20071;-75
2023/10/07 01:26:33;;;;;;;5.50;5.10;;;;;;;12.50;100.00;101696.31;6031375;23;20483;-75
2023/10/07 01:29:12;;;;;;;5.50;5.00;;;;;;;11.82;100.00;101561.53;6030520;23;20101;-74
2023/10/07 01:31:43;;;;;;;5.18;4.88;;;;;;;11.94;100.00;101588.19;6052686;23;20045;-75
2023/10/07 01:34:17;;;;;;;5.30;4.90;;;;;;;12.18;100.00;101638.03;6025011;23;20039;-75
2023/10/07 01:36:45;;;;;;;5.82;5.28;;;;;;;12.46;100.00;101687.69;6052235;23;20441;-77
2023/10/07 01:39:12;;;;;;;5.72;5.22;;;;;;;12.09;100.00;101612.16;6031523;23;20027;-74
2023/10/07 01:41:39;;;;;;;5.45;5.15;;;;;;;12.53;100.00;101693.56;6062179;23;20516;-76
2023/10/07 01:44:06;;;;;;;7.53;5.65;;;;;;;12.03;100.00;101617.66;6051139;23;20022;-72
2023/10/07 01:46:34;;;;;;;5.07;4.68;;;;;;;12.33;100.00;101671.59;6054894;23;20089;-74
2023/10/07 01:49:11;;;;;;;5.43;5.00;;;;;;;11.93;100.00;101606.69;6059312;23;20523;-75
2023/10/07 01:51:47;;;;;;;6.82;5.30;;;;;;;12.47;100.00;101702.56;6057016;23;20046;-75
2023/10/07 01:54:14;;;;;;;5.57;5.20;;;;;;;12.48;100.00;101704.28;6030918;23;20054;-75
2023/10/07 01:56:40;;;;;;;5.82;5.35;;;;;;;12.35;100.00;101696.06;6053715;23;20354;-76
2023/10/07 02:01:50;;;;;;;6.10;5.50;;;;;;;12.47;100.00;101707.84;6054081;23;20399;-76
2023/10/07 02:04:18;;;;;;;6.18;5.25;;;;;;;12.44;100.00;101689.53;6003216;23;20031;-74
2023/10/07 02:06:51;;;;;;;9.50;5.43;;;;;;;11.98;100.00;101615.22;6054292;23;20030;-76
2023/10/07 02:09:25;;;;;;;5.53;5.15;;;;;;;12.39;100.00;101662.56;6061997;23;20022;-74
2023/10/07 02:11:57;;;;;;;8.48;6.55;;;;;;;12.48;100.00;101683.22;6063053;23;20038;-75
2023/10/07 02:14:25;;;;;;;5.53;5.13;;;;;;;12.33;100.00;101670.75;6029004;23;20039;-74
2023/10/07 02:16:53;;;;;;;6.05;5.47;;;;;;;12.52;100.00;101687.41;6062672;23;20026;-76
2023/10/07 02:19:29;;;;;;;9.60;5.72;;;;;;;12.20;100.00;101637.97;6022546;23;20026;-75
2023/10/07 02:21:59;;;;;;;6.40;5.72;;;;;;;12.60;100.00;101708.13;6064083;23;20030;-74
2023/10/07 02:24:30;;;;;;;5.32;4.97;;;;;;;12.58;100.00;101710.00;6057845;23;20022;-75
2023/10/07 02:27:08;;;;;;;5.35;4.95;;;;;;;11.76;100.00;101587.19;6005139;23;20069;-76
2023/10/07 02:29:40;;;;;;;5.57;5.13;;;;;;;12.38;100.00;101705.59;6064014;23;20065;-79
2023/10/07 02:32:17;;;;;;;6.30;5.70;;;;;;;12.60;100.00;101736.25;6029045;23;20019;-74
2023/10/07 02:34:59;;;;;;;5.57;5.18;;;;;;;12.22;100.00;101670.34;6035223;23;20074;-76
2023/10/07 02:37:29;;;;;;;5.60;5.20;;;;;;;12.70;100.00;101741.03;6031341;23;20014;-73
2023/10/07 02:40:01;;;;;;;5.97;5.57;;;;;;;12.34;100.00;101678.53;6059717;23;20064;-75
2023/10/07 02:42:31;;;;;;;6.25;5.65;;;;;;;12.06;100.00;101634.16;6063943;23;20388;-75
2023/10/07 02:45:42;;;;;;;5.90;5.28;;;;;;;12.44;100.00;101700.06;6050498;23;20042;-74
2023/10/07 02:47:51;;;;;;;5.68;5.28;;;;;;;12.05;100.00;101626.34;6051685;23;20155;-74
2023/10/07 02:50:18;;;;;;;6.28;5.57;;;;;;;12.24;100.00;101636.91;6037148;23;20033;-76
2023/10/07 02:52:49;;;;;;;5.63;5.13;;;;;;;12.31;100.00;101664.69;6059251;23;20324;-74
2023/10/07 02:57:46;;;;;;;5.68;5.28;;;;;;;12.57;100.00;101695.97;6060870;23;20039;-76
2023/10/07 03:00:29;;;;;;;5.43;5.03;;;;;;;12.61;100.00;101711.63;6102531;18;20037;-74
2023/10/07 03:05:45;;;;;;;5.72;4.93;;;;;;;12.35;100.00;101671.53;6109266;23;20256;-75
2023/10/07 03:08:21;;;;;;;5.78;5.18;;;;;;;12.63;100.00;101720.31;6116539;23;20086;-75
2023/10/07 03:13:38;;;;;;;6.68;6.07;;;;;;;11.87;100.00;101628.81;6119439;23;20042;-76
2023/10/07 03:24:14;;;;;;;6.07;5.57;;;;;;;12.62;100.00;101711.56;6116940;23;20512;-76
2023/10/07 03:26:43;;;;;;;6.35;5.75;;;;;;;12.77;100.00;101729.31;6118879;23;20033;-74
2023/10/07 03:29:19;;;;;;;5.70;5.25;;;;;;;12.42;100.00;101677.38;6118703;23;20051;-75
2023/10/07 03:34:15;;;;;;;6.20;5.65;;;;;;;12.83;100.00;101738.72;6120783;23;20370;-74
2023/10/07 03:41:48;;;;;;;12.52;10.40;;;;;;;12.06;100.00;101620.16;6099880;23;20075;-78
2023/10/07 03:44:19;;;;;;;5.82;5.43;;;;;;;12.93;100.00;101749.72;6071901;23;20037;-76
2023/10/07 03:46:54;;;;;;;5.88;5.32;;;;;;;12.97;100.00;101748.66;6096774;23;20069;-76
2023/10/07 03:49:22;;;;;;;6.50;6.00;;;;;;;12.88;100.00;101739.38;6087487;23;20084;-75
2023/10/07 03:51:59;;;;;;;6.40;5.53;;;;;;;13.02;100.00;101749.28;6119379;23;20033;-76
2023/10/07 03:54:29;;;;;;;6.53;5.88;;;;;;;12.16;100.00;101608.31;6116213;23;20049;-74
2023/10/07 03:57:02;;;;;;;6.85;6.15;;;;;;;13.14;100.00;101753.97;6085543;23;20031;-74
2023/10/07 03:59:32;;;;;;;6.28;5.78;;;;;;;12.95;100.00;101730.28;6118673;23;20013;-74
2023/10/07 04:01:58;;;;;;;6.68;6.13;;;;;;;12.78;100.00;101696.78;6115984;23;20500;-75
2023/10/07 04:04:25;;;;;;;6.20;5.70;;;;;;;13.23;100.00;101742.19;6117708;23;20516;-76
2023/10/07 04:06:52;;;;;;;6.60;6.15;;;;;;;13.01;100.00;101689.63;6121697;23;20085;-76
2023/10/07 04:09:27;;;;;;;5.93;5.45;;;;;;;12.60;100.00;101629.13;6121779;23;20037;-76
2023/10/07 04:11:53;;;;;;;9.60;6.18;;;;;;;12.86;100.00;101656.91;6087103;23;20094;-76
2023/10/07 04:14:22;;;;;;;6.63;6.03;;;;;;;12.70;100.00;101621.69;6121204;23;20017;-75
2023/10/07 04:16:50;;;;;;;9.38;6.05;;;;;;;13.39;100.00;101728.28;6089728;23;20024;-74
2023/10/07 04:21:44;;;;;;;6.22;5.78;;;;;;;13.34;100.00;101726.72;6118991;23;20551;-77
2023/10/07 04:24:12;;;;;;;6.63;5.82;;;;;;;13.00;100.00;101656.28;6120362;23;20056;-76
2023/10/07 04:26:51;;;;;;;9.15;5.22;;;;;;;13.16;100.00;101673.06;6115766;23;20037;-75
2023/10/07 04:29:18;;;;;;;7.30;5.43;;;;;;;13.51;100.00;101736.50;6119850;23;20019;-76
2023/10/07 04:31:46;;;;;;;6.60;6.05;;;;;;;13.27;100.00;101685.75;6119626;23;20029;-75
2023/10/07 04:34:15;;;;;;;6.05;5.65;;;;;;;13.07;100.00;101638.38;6112837;23;20108;-74
2023/10/07 04:39:37;;;;;;;5.55;5.15;;;;;;;13.44;100.00;101689.38;6119887;23;20089;-74
2023/10/07 04:42:07;;;;;;;5.68;5.28;;;;;;;13.27;100.00;101632.16;6113489;23;20348;-74
2023/10/07 04:50:06;;;;;;;10.07;6.90;;;;;;;13.35;100.00;101654.63;6113635;23;20034;-75
2023/10/07 04:52:42;;;;;;;6.10;5.70;;;;;;;13.55;100.00;101692.34;6117617;23;20084;-76
2023/10/07 04:55:13;;;;;;;6.32;5.47;;;;;;;13.21;100.00;101637.72;6109107;23;20029;-76
2023/10/07 05:03:14;;;;;;;6.40;5.90;;;;;;;13.64;100.00;101698.97;6049308;23;20540;-75
2023/10/07 05:05:46;;;;;;;5.95;5.55;;;;;;;13.64;100.00;101705.09;6061308;23;20038;-75
2023/10/07 05:08:17;;;;;;;6.20;5.60;;;;;;;13.64;100.00;101689.25;6057174;23;20081;-73
2023/10/07 05:10:52;;;;;;;5.47;5.10;;;;;;;13.28;100.00;101632.09;6087278;23;20553;-74
2023/10/07 05:13:19;;;;;;;6.13;5.70;;;;;;;13.65;100.00;101690.09;6047280;23;20615;-74
2023/10/07 05:15:46;;;;;;;5.65;5.25;;;;;;;13.15;100.00;101605.47;6050219;23;20524;-76
2023/10/07 05:18:16;;;;;;;6.28;5.68;;;;;;;13.67;100.00;101688.25;6080615;23;20071;-73
2023/10/07 05:20:47;;;;;;;6.32;5.82;;;;;;;12.92;100.00;101556.50;6029660;23;20032;-75
2023/10/07 05:23:17;;;;;;;8.27;5.68;;;;;;;13.32;100.00;101628.41;6078978;23;20062;-75
2023/10/07 05:25:48;;;;;;;12.52;6.05;;;;;;;13.69;100.00;101683.75;6085355;23;20103;-76
2023/10/07 05:28:20;;;;;;;6.43;5.90;;;;;;;13.09;100.00;101589.97;6076829;23;20217;-74
2023/10/07 05:30:50;;;;;;;5.53;5.20;;;;;;;13.64;100.00;101686.63;6085488;23;20037;-74
2023/10/07 05:33:24;;;;;;;6.47;5.15;;;;;;;13.64;100.00;101689.25;6079570;23;20177;-74
2023/10/07 05:35:58;;;;;;;6.95;6.45;;;;;;;13.43;100.00;101656.91;6082917;23;20087;-76
2023/10/07 05:38:25;;;;;;;6.13;5.53;;;;;;;13.68;100.00;101684.69;6052937;23;20494;-74
2023/10/07 05:40:52;;;;;;;6.03;5.53;;;;;;;13.39;100.00;101641.28;6085317;23;20040;-75
2023/10/07 05:43:18;;;;;;;6.03;5.63;;;;;;;13.14;100.00;101595.84;6086809;23;20088;-75
2023/10/07 05:45:45;;;;;;;5.65;5.25;;;;;;;13.56;100.00;101670.31;6082101;23;20407;-76
2023/10/07 05:48:11;;;;;;;6.35;5.75;;;;;;;13.56;100.00;101675.59;6083890;23;20081;-74
2023/10/07 05:50:38;;;;;;;5.90;5.50;;;;;;;13.69;100.00;101707.50;6076756;23;20091;-74
2023/10/07 05:53:05;;;;;;;6.00;5.60;;;;;;;13.41;100.00;101664.03;6051383;23;20030;-74
2023/10/07 05:55:36;;;;;;;6.65;6.05;;;;;;;13.48;100.00;101686.50;6082037;23;20745;-73
2023/10/07 05:58:04;;;;;;;8.00;7.40;;;;;;;13.71;100.00;101734.66;6052272;23;20026;-75
2023/10/07 06:00:36;;;;;;;6.13;5.72;;;;;;;13.45;100.00;101686.69;6082991;23;20037;-73
2023/10/07 06:03:06;;;;;;;5.70;5.30;;;;;;;13.35;100.00;101670.44;6050048;23;20121;-73
2023/10/07 06:05:33;;;;;;;5.40;5.10;;;;;;;13.60;100.00;101702.69;6080661;23;20302;-75
2023/10/07 06:08:00;;;;;;;7.28;6.68;;;;;;;13.56;100.00;101689.63;6048341;23;20034;-76
2023/10/07 06:10:26;;;;;;;6.50;6.00;;;;;;;13.46;100.00;101674.34;6026606;23;20026;-74
2023/10/07 06:12:53;;;;;;;6.50;5.90;;;;;;;13.44;100.00;101676.19;6078329;23;20083;-74
2023/10/07 06:15:21;;;;;;;5.30;5.00;;;;;;;13.64;100.00;101709.50;6055686;23;20025;-73
2023/10/07 06:17:47;;;;;;;7.07;6.40;;;;;;;13.41;100.00;101660.50;6080374;23;20030;-74
2023/10/07 06:20:17;;;;;;;6.03;5.53;;;;;;;13.13;100.00;101603.84;6078314;23;20072;-74
2023/10/07 06:22:48;;;;;;;9.45;6.68;;;;;;;13.44;100.00;101661.22;6080391;23;20059;-73
2023/10/07 06:25:18;;;;;;;5.97;5.57;;;;;;;13.63;100.00;101689.31;6081358;23;20079;-73
2023/10/07 06:27:44;;;;;;;5.80;5.30;;;;;;;13.24;100.00;101614.72;6078805;23;20144;-76
2023/10/07 06:30:20;;;;;;;6.20;5.78;;;;;;;13.20;100.00;101599.97;6057192;23;20506;-76
2023/10/07 06:32:55;;;;;;;6.15;5.65;;;;;;;13.91;100.00;101705.53;6072749;23;20085;-73
2023/10/07 06:35:23;;;;;;;8.18;5.40;;;;;;;14.17;100.00;101737.63;6052348;23;20051;-74
2023/10/07 06:37:57;;;;;;;6.05;5.68;;;;;;;13.61;100.00;101641.94;6071911;23;20120;-75
2023/10/07 06:40:28;;;;;;;6.15;5.75;;;;;;;13.25;100.00;101576.00;6085133;23;20260;-75
2023/10/07 06:42:58;;;;;;;5.65;5.35;;;;;;;14.23;100.00;101740.00;6079186;23;20373;-74
2023/10/07 06:45:35;;;;;;;6.75;6.15;;;;;;;13.89;100.00;101677.47;6051353;23;20107;-75
2023/10/07 06:48:09;;;;;;;7.05;6.55;;;;;;;14.30;100.00;101736.09;6051882;23;20523;-76
2023/10/07 06:50:41;;;;;;;6.22;5.80;;;;;;;13.60;100.00;101618.28;6051378;23;20011;-74
2023/10/07 06:53:11;;;;;;;6.25;5.85;;;;;;;14.30;100.00;101700.91;6033400;23;20093;-73
2023/10/07 06:55:42;;;;;;;7.10;6.15;;;;;;;14.45;100.00;101712.47;6052273;23;20056;-74
2023/10/07 06:58:09;;;;;;;5.95;5.55;;;;;;;14.53;100.00;101718.19;6045644;23;20437;-75
2023/10/07 07:00:48;;;;;;;6.25;5.65;;;;;;;14.59;100.00;101722.34;6052875;23;20022;-74
2023/10/07 07:03:18;;;;;;;6.85;5.75;;;;;;;14.39;100.00;101667.88;6079477;23;20460;-75
2023/10/07 07:05:46;;;;;;;6.57;5.95;;;;;;;14.06;100.00;101610.66;6081463;23;20049;-78
2023/10/07 07:08:13;;;;;;;6.40;5.78;;;;;;;14.88;100.00;101719.00;6048958;23;20414;-74
2023/10/07 07:10:40;;;;;;;6.03;5.50;;;;;;;14.99;100.00;101707.00;6087038;23;20029;-73
2023/10/07 07:13:15;;;;;;;6.38;5.65;;;;;;;14.82;100.00;101655.06;6042158;23;20078;-75
2023/10/07 07:15:41;;;;;;;6.45;5.90;;;;;;;15.08;100.00;101658.91;6073835;23;20185;-74
2023/10/07 07:21:00;;;;;;;5.93;5.53;;;;;;;15.49;100.00;101656.53;6046454;23;20495;-75
2023/10/07 07:23:40;;;;;;;5.95;5.57;;;;;;;15.70;100.00;101654.47;6080814;23;20089;-75
2023/10/07 07:26:10;;;;;;;6.63;6.07;;;;;;;15.86;100.00;101638.56;6073445;23;20110;-75
2023/10/07 07:28:42;;;;;;;6.10;5.57;;;;;;;15.79;100.00;101610.75;6050435;23;20022;-74
2023/10/07 07:31:19;;;;;;;7.97;5.97;;;;;;;15.52;100.00;101555.84;6050094;23;20041;-75
2023/10/07 07:33:50;;;;;;;6.80;6.00;;;;;;;15.72;100.00;101596.16;6049736;23;20069;-76
2023/10/07 07:36:39;;;;;;;9.98;6.32;;;;;;;15.65;100.00;101566.53;6051505;23;20023;-74
2023/10/07 07:39:09;;;;;;;7.57;5.93;;;;;;;15.54;100.00;101567.19;6074758;23;20049;-76
2023/10/07 07:41:55;;;;;;;6.90;6.28;;;;;;;15.79;100.00;101602.81;6076968;23;20046;-73
2023/10/07 07:44:34;;;;;;;6.20;5.60;;;;;;;15.48;100.00;101567.56;6046104;23;20049;-75
2023/10/07 07:47:05;;;;;;;8.02;5.40;;;;;;;15.88;100.00;101614.66;6070125;23;20667;-75
2023/10/07 07:49:32;;;;;;;5.88;5.47;;;;;;;15.71;100.00;101582.03;6063765;23;20022;-75
2023/10/07 07:52:00;;;;;;;7.03;6.53;;;;;;;15.47;100.00;101536.72;6063832;23;20277;-74
2023/10/07 07:54:27;;;;;;;5.80;5.40;;;;;;;15.66;100.00;101568.25;6052550;23;20199;-75
2023/10/07 07:56:54;;;;;;;7.28;5.60;;;;;;;15.84;100.00;101634.31;6071251;23;20026;-75
2023/10/07 07:59:22;;;;;;;6.18;5.68;;;;;;;15.84;100.00;101626.38;6047908;23;20194;-74
2023/10/07 08:01:53;;;;;;;9.10;6.38;;;;;;;15.53;100.00;101565.47;6074632;23;20036;-75
2023/10/07 08:07:17;;;;;;;11.43;5.70;;;;;;;15.76;100.00;101624.16;6076526;23;20054;-74
2023/10/07 08:09:50;;;;;;;6.75;5.55;;;;;;;15.48;100.00;101570.19;6029622;23;20031;-76
2023/10/07 08:12:31;;;;;;;6.63;6.00;;;;;;;15.54;100.00;101585.72;6073803;23;20518;-73
2023/10/07 08:14:58;;;;;;;6.55;5.80;;;;;;;15.66;100.00;101612.41;6076057;23;20132;-75
2023/10/07 08:17:29;;;;;;;9.68;5.88;;;;;;;15.72;100.00;101619.97;6051922;23;20022;-74
2023/10/07 08:19:57;;;;;;;7.57;6.38;;;;;;;15.83;100.00;101606.97;6071515;23;20026;-74
2023/10/07 08:22:27;;;;;;;5.97;5.47;;;;;;;15.37;100.00;101522.34;6073012;23;20007;-74
2023/10/07 08:25:00;;;;;;;5.72;5.35;;;;;;;15.63;100.00;101543.78;6052451;23;20022;-76
2023/10/07 08:27:44;;;;;;;5.55;5.18;;;;;;;16.00;100.00;101613.06;6047391;23;20022;-76
2023/10/07 08:30:14;;;;;;;6.13;5.65;;;;;;;15.98;100.00;101536.38;6076721;23;20026;-75
2023/10/07 08:32:48;;;;;;;6.75;5.40;;;;;;;16.67;100.00;101600.91;6076708;23;20463;-75
2023/10/07 08:35:14;;;;;;;7.03;5.95;;;;;;;16.88;100.00;101574.03;6049770;23;20052;-76
2023/10/07 08:37:45;;;;;;;6.15;5.65;;;;;;;17.03;100.00;101573.03;6050588;23;20437;-74
2023/10/07 08:40:29;;;;;;;6.68;5.85;;;;;;;16.80;100.00;101497.63;6047339;23;20168;-74
2023/10/07 08:43:04;;;;;;;6.00;5.60;;;;;;;16.81;100.00;101478.13;6078853;23;20085;-75
2023/10/07 08:45:33;;;;;;;6.38;5.60;;;;;;;16.93;100.00;101489.72;6049721;23;20041;-74
2023/10/07 08:48:16;;;;;;;6.75;6.35;;;;;;;16.66;100.00;101448.16;6091141;23;20025;-75
2023/10/07 08:50:55;;;;;;;6.47;5.43;;;;;;;17.16;100.00;101525.34;6071143;23;20433;-77
2023/10/07 08:53:23;;;;;;;6.13;5.63;;;;;;;16.73;100.00;101438.00;6076675;23;20026;-74
2023/10/07 08:55:54;;;;;;;7.10;6.60;;;;;;;16.91;100.00;101487.16;6044344;23;20359;-74
2023/10/07 08:58:26;;;;;;;5.82;5.53;;;;;;;17.28;100.00;101508.59;6061844;23;20026;-74
2023/10/07 09:00:59;;;;;;;6.57;6.00;;;;;;;16.79;100.00;101413.72;6078406;23;20476;-74
2023/10/07 09:03:29;;;;;;;6.65;6.10;;;;;;;16.83;100.00;101432.97;6074577;23;20037;-76
2023/10/07 09:06:00;;;;;;;6.72;6.35;;;;;;;16.91;100.00;101452.69;6049785;23;20119;-74
2023/10/07 09:08:26;;;;;;;6.10;5.60;;;;;;;16.53;100.00;101429.53;6075460;23;20037;-72
2023/10/07 09:10:55;;;;;;;6.05;5.57;;;;;;;16.53;100.00;101471.94;6055709;23;20401;-76
2023/10/07 09:13:29;;;;;;;5.50;5.18;;;;;;;16.54;100.00;101468.38;6051292;23;20197;-75
2023/10/07 09:15:59;;;;;;;7.85;6.53;;;;;;;16.82;100.00;101506.34;6066111;23;20025;-74
2023/10/07 09:18:37;;;;;;;6.05;5.65;;;;;;;17.10;100.00;101501.88;6078115;23;20302;-74
2023/10/07 09:21:09;;;;;;;9.90;5.47;;;;;;;17.45;100.00;101493.31;6074871;23;20030;-74
2023/10/07 09:23:47;;;;;;;5.95;5.53;;;;;;;17.43;100.00;101434.19;6056542;23;20169;-73
2023/10/07 09:26:21;;;;;;;5.97;5.57;;;;;;;17.45;100.00;101408.41;6051458;23;20794;-75
2023/10/07 09:28:58;;;;;;;10.70;5.97;;;;;;;17.80;100.00;101452.84;6076383;23;20308;-74
2023/10/07 09:31:26;;;;;;;6.35;5.88;;;;;;;17.64;100.00;101395.56;6049610;23;20390;-73
2023/10/07 09:34:01;;;;;;;6.90;6.50;;;;;;;17.81;100.00;101399.63;6048618;23;20026;-75
2023/10/07 09:41:39;;;;;;;7.43;5.75;;;;;;;17.77;98.85;101323.81;6072364;23;20058;-74
2023/10/07 09:46:52;;;;;;;6.10;5.70;;;;;;;18.25;97.63;101377.00;6045614;23;20089;-75
2023/10/07 09:49:20;;;;;;;6.25;5.75;;;;;;;18.09;98.60;101365.81;6077477;23;20535;-74
2023/10/07 09:51:49;;;;;;;6.05;5.38;;;;;;;18.45;97.35;101387.97;6047967;23;20025;-73
2023/10/07 09:54:22;;;;;;;8.35;5.72;;;;;;;18.52;95.39;101362.59;6076694;23;20032;-74
2023/10/07 09:57:07;;;;;;;6.47;5.97;;;;;;;18.50;94.48;101352.13;6070410;23;20030;-74
2023/10/07 10:00:32;;;;;;;6.63;6.13;;;;;;;18.33;93.52;101297.56;6073221;23;20032;-74
2023/10/07 10:03:21;;;;;;;5.70;5.40;;;;;;;18.58;92.57;101322.28;6073156;23;20064;-74
2023/10/07 10:06:07;;;;;;;6.45;5.95;;;;;;;18.52;93.97;101349.31;6042812;23;20042;-73
2023/10/07 10:08:44;;;;;;;6.03;5.53;;;;;;;18.66;96.37;101401.44;6073581;23;20286;-74
2023/10/07 10:11:30;;;;;;;9.82;5.82;;;;;;;18.47;96.46;101365.63;6076959;23;20034;-73
2023/10/07 10:17:00;;;;;;;6.20;5.70;;;;;;;19.16;94.36;101394.13;6050622;23;20043;-75
2023/10/07 10:19:37;;;;;;;6.60;6.07;;;;;;;19.31;90.85;101323.72;6077676;23;20016;-75
2023/10/07 10:22:10;;;;;;;6.85;6.38;;;;;;;18.89;89.70;101242.84;6016578;23;20247;-74
2023/10/07 10:24:44;;;;;;;6.40;5.90;;;;;;;19.34;87.11;101256.09;6069282;23;20592;-75
2023/10/07 10:27:17;;;;;;;6.20;5.60;;;;;;;19.31;86.46;101254.53;6071802;23;20461;-74
2023/10/07 10:30:04;;;;;;;6.32;5.93;;;;;;;19.32;85.49;101216.31;6078775;23;20025;-75
2023/10/07 10:32:36;;;;;;;5.93;5.50;;;;;;;19.15;84.92;101226.63;6049470;23;20034;-73
2023/10/07 10:35:06;;;;;;;6.25;5.75;;;;;;;19.58;84.47;101242.63;6078447;23;20060;-74
2023/10/07 10:37:34;;;;;;;6.40;6.00;;;;;;;19.49;83.73;101238.91;6080121;23;20390;-74
2023/10/07 10:40:14;;;;;;;8.10;7.40;;;;;;;19.77;84.39;101294.44;6051055;23;20037;-73
2023/10/07 10:42:47;;;;;;;6.03;5.57;;;;;;;19.85;82.74;101244.88;6078045;23;20065;-73
2023/10/07 10:45:21;;;;;;;6.22;5.72;;;;;;;20.03;82.15;101252.31;6028892;23;20045;-73
2023/10/07 10:47:53;;;;;;;6.75;6.28;;;;;;;19.79;82.35;101217.91;6078726;23;20465;-72
2023/10/07 10:50:23;;;;;;;6.25;5.82;;;;;;;20.14;81.71;101254.91;6051310;23;20045;-74
2023/10/07 10:52:54;;;;;;;6.30;5.65;;;;;;;19.87;80.95;101197.66;6081639;23;20018;-73
2023/10/07 10:55:24;;;;;;;6.97;6.43;;;;;;;20.43;79.56;101246.28;6049669;23;20453;-74
2023/10/07 10:57:52;;;;;;;7.07;6.57;;;;;;;20.32;78.11;101191.22;6049636;23;20033;-73
2023/10/07 11:00:22;;;;;;;6.63;6.07;;;;;;;20.53;77.82;101216.03;6052352;23;20025;-73
2023/10/07 11:02:50;;;;;;;5.95;5.55;;;;;;;20.63;78.16;101237.44;6073776;23;20356;-73
2023/10/07 11:05:18;;;;;;;6.43;6.00;;;;;;;20.63;76.45;101183.28;6076487;23;20075;-73
2023/10/07 11:07:50;;;;;;;6.00;5.60;;;;;;;20.22;75.33;101081.88;6077774;23;20092;-74
2023/10/07 11:10:22;;;;;;;5.80;5.50;;;;;;;19.98;75.50;101100.81;6054182;23;20101;-73
2023/10/07 11:12:56;;;;;;;6.53;5.93;;;;;;;20.28;76.12;101179.97;6079624;23;20013;-73
2023/10/07 11:15:27;;;;;;;6.30;5.80;;;;;;;20.67;76.66;101259.38;6075125;23;20030;-74
2023/10/07 11:17:56;;;;;;;8.38;6.47;;;;;;;20.29;77.01;101192.31;6079678;23;20089;-74
2023/10/07 11:20:24;;;;;;;6.05;5.65;;;;;;;20.81;74.60;101180.81;6074262;23;20045;-73
2023/10/07 11:22:53;;;;;;;6.30;5.80;;;;;;;20.86;73.58;101173.25;6079499;23;20061;-73
2023/10/07 11:25:23;;;;;;;6.53;6.05;;;;;;;20.82;74.13;101179.81;6053768;23;20042;-74
2023/10/07 11:27:49;;;;;;;6.35;6.00;;;;;;;20.78;73.93;101187.25;6075074;23;20514;-73
2023/10/07 11:30:16;;;;;;;6.93;6.05;;;;;;;20.83;73.62;101176.19;6078696;23;20108;-74
2023/10/07 11:32:43;;;;;;;6.68;6.13;;;;;;;19.63;73.82;101008.78;6078072;23;20474;-73
2023/10/07 11:35:19;;;;;;;5.93;5.63;;;;;;;21.14;73.45;101187.66;6055995;23;20345;-73
2023/10/07 11:37:49;;;;;;;7.72;5.95;;;;;;;20.94;71.68;101121.88;6050092;23;20449;-74
2023/10/07 11:40:19;;;;;;;5.95;5.57;;;;;;;20.40;70.56;101003.94;6078621;23;20032;-74
2023/10/07 11:42:46;;;;;;;6.32;5.80;;;;;;;21.23;70.15;101156.63;6084621;23;20017;-75
2023/10/07 11:45:13;;;;;;;6.18;5.78;;;;;;;21.14;69.67;101107.56;6057822;23;20029;-74
2023/10/07 11:47:41;;;;;;;6.50;6.00;;;;;;;20.77;68.19;101009.53;6084397;23;20070;-73
2023/10/07 11:50:08;;;;;;;6.28;5.85;;;;;;;21.10;68.70;101076.81;6068849;23;20014;-74
2023/10/07 11:52:37;;;;;;;6.15;5.65;;;;;;;21.30;69.01;101107.03;6052043;23;20078;-74
2023/10/07 11:55:07;;;;;;;6.43;5.82;;;;;;;21.48;66.78;101059.97;6074939;23;20138;-73
2023/10/07 11:57:34;;;;;;;6.10;5.70;;;;;;;21.24;67.96;101075.56;6048997;23;20077;-74
2023/10/07 12:00:01;;;;;;;6.95;6.40;;;;;;;21.12;67.82;101058.84;6082532;23;20526;-75
2023/10/07 12:02:28;;;;;;;5.63;5.32;;;;;;;21.51;69.46;101166.53;6076530;23;20014;-74
2023/10/07 12:04:54;;;;;;;6.60;6.10;;;;;;;21.60;68.50;101126.59;6091135;23;20029;-74
2023/10/07 12:07:21;;;;;;;7.40;6.50;;;;;;;21.83;68.40;101191.25;6073484;23;20006;-75
2023/10/07 12:09:48;;;;;;;6.22;5.82;;;;;;;21.87;66.46;101108.00;6051762;23;20461;-74
2023/10/07 12:12:15;;;;;;;6.03;5.68;;;;;;;20.72;69.18;101041.94;6080450;23;20095;-74
2023/10/07 12:14:42;;;;;;;6.50;6.03;;;;;;;21.30;67.75;101066.97;6054437;23;20249;-74
2023/10/07 12:17:09;;;;;;;6.45;5.95;;;;;;;21.05;67.79;101012.34;6059307;23;20048;-74
2023/10/07 12:19:36;;;;;;;6.30;5.90;;;;;;;21.71;67.89;101132.63;6058815;23;20489;-74
2023/10/07 12:22:06;;;;;;;6.78;6.38;;;;;;;21.73;68.64;101191.28;6063992;23;20026;-73
2023/10/07 12:24:34;;;;;;;6.95;6.45;;;;;;;21.78;69.53;101218.41;6082268;23;20174;-73
2023/10/07 12:27:01;;;;;;;6.05;5.55;;;;;;;21.95;67.69;101158.06;6075273;23;20036;-74
2023/10/07 12:29:28;;;;;;;6.25;5.75;;;;;;;21.92;66.80;101132.44;6055319;23;20041;-74
2023/10/07 12:31:56;;;;;;;7.10;6.60;;;;;;;21.78;67.79;101181.00;6073556;23;20019;-74
2023/10/07 12:34:23;;;;;;;6.32;5.88;;;;;;;21.67;68.92;101205.19;6057162;23;20171;-73
2023/10/07 12:36:53;;;;;;;9.20;6.10;;;;;;;22.01;67.66;101208.28;6078960;23;20460;-73
2023/10/07 12:39:21;;;;;;;6.25;5.93;;;;;;;22.17;68.81;101245.13;6052696;23;20105;-73